Time,TemperatureF,DewpointF,PressureIn,WindDirection,WindDirectionDegrees,WindSpeedMPH,WindSpeedGustMPH,Humidity,HourlyPrecipIn,Conditions,Clouds,dailyrainin,SoftwareType,DateUTC
2013-08-14 00:00:00,65.4,47.8,29.79,NE,38,0.0,0.0,53,0.00,,,0.00,Wunderground v.1.15,2013-08-14 06:00:00,
2013-08-14 00:09:00,64.0,46.5,29.79,NNE,19,1.0,5.0,53,0.00,,,0.00,Wunderground v.1.15,2013-08-14 06:09:00,
2013-08-14 00:19:00,64.0,45.5,29.78,NNE,31,1.0,1.0,51,0.00,,,0.00,Wunderground v.1.15,2013-08-14 06:19:00,
2013-08-14 00:29:00,63.6,46.6,29.78,South,186,3.0,4.0,54,0.00,,,0.00,Wunderground v.1.15,2013-08-14 06:29:00,
2013-08-14 00:39:00,64.2,47.2,29.79,NNE,24,2.0,2.0,54,0.00,,,0.00,Wunderground v.1.15,2013-08-14 06:39:00,
2013-08-14 00:49:00,63.4,46.9,29.80,North,355,1.0,1.0,55,0.00,,,0.00,Wunderground v.1.15,2013-08-14 06:49:00,
2013-08-14 00:59:00,62.5,46.6,29.80,North,355,0.0,0.0,56,0.00,,,0.00,Wunderground v.1.15,2013-08-14 06:59:00,
2013-08-14 01:10:00,61.7,45.8,29.80,NNE,22,0.0,0.0,56,0.00,,,0.00,Wunderground v.1.15,2013-08-14 07:10:00,
2013-08-14 01:19:00,61.8,45.9,29.79,NNE,22,0.0,1.0,56,0.00,,,0.00,Wunderground v.1.15,2013-08-14 07:19:00,
2013-08-14 01:29:00,61.2,46.3,29.80,North,10,1.0,1.0,58,0.00,,,0.00,Wunderground v.1.15,2013-08-14 07:29:00,
2013-08-14 01:39:00,60.4,45.5,29.81,North,10,0.0,0.0,58,0.00,,,0.00,Wunderground v.1.15,2013-08-14 07:39:00,
2013-08-14 01:50:00,61.4,45.1,29.80,ENE,70,0.0,2.0,55,0.00,,,0.00,Wunderground v.1.15,2013-08-14 07:50:00,
2013-08-14 01:59:00,63.2,46.3,29.80,ENE,65,1.0,1.0,54,0.00,,,0.00,Wunderground v.1.15,2013-08-14 07:59:00,
2013-08-14 02:09:00,59.9,46.4,29.80,ENE,65,0.0,0.0,61,0.00,,,0.00,Wunderground v.1.15,2013-08-14 08:09:00,
2013-08-14 02:19:00,59.1,45.7,29.81,ENE,65,0.0,0.0,61,0.00,,,0.00,Wunderground v.1.15,2013-08-14 08:19:00,
2013-08-14 02:30:00,59.0,46.0,29.81,NNW,341,0.0,3.0,62,0.00,,,0.00,Wunderground v.1.15,2013-08-14 08:30:00,
2013-08-14 02:39:00,59.2,46.2,29.82,NNW,348,0.0,0.0,62,0.00,,,0.00,Wunderground v.1.15,2013-08-14 08:39:00,
2013-08-14 02:49:00,61.4,44.1,29.81,SE,126,1.0,3.0,53,0.00,,,0.00,Wunderground v.1.15,2013-08-14 08:49:00,
2013-08-14 02:59:00,67.0,44.4,29.78,East,98,3.0,3.0,44,0.00,,,0.00,Wunderground v.1.15,2013-08-14 08:59:00,
2013-08-14 03:09:00,68.6,43.9,29.78,East,86,3.0,5.0,41,0.00,,,0.00,Wunderground v.1.15,2013-08-14 09:09:00,
2013-08-14 03:19:00,68.9,43.6,29.78,East,84,3.0,4.0,40,0.00,,,0.00,Wunderground v.1.15,2013-08-14 09:19:00,
2013-08-14 03:30:00,69.2,43.8,29.78,East,92,4.0,4.0,40,0.00,,,0.00,Wunderground v.1.15,2013-08-14 09:30:00,
2013-08-14 03:39:00,69.4,43.4,29.78,ESE,123,4.0,6.0,39,0.00,,,0.00,Wunderground v.1.15,2013-08-14 09:39:00,
2013-08-14 03:49:00,69.7,43.6,29.77,East,91,5.0,5.0,39,0.00,,,0.00,Wunderground v.1.15,2013-08-14 09:49:00,
2013-08-14 04:00:00,69.6,43.5,29.77,ESE,121,5.0,5.0,39,0.00,,,0.00,Wunderground v.1.15,2013-08-14 10:00:00,
2013-08-14 04:09:00,69.3,43.3,29.78,ESE,104,4.0,4.0,39,0.00,,,0.00,Wunderground v.1.15,2013-08-14 10:09:00,
2013-08-14 04:19:00,69.0,43.7,29.78,ESE,110,3.0,5.0,40,0.00,,,0.00,Wunderground v.1.15,2013-08-14 10:19:00,
2013-08-14 04:29:00,68.4,43.1,29.79,East,99,3.0,4.0,40,0.00,,,0.00,Wunderground v.1.15,2013-08-14 10:29:00,
2013-08-14 04:40:00,68.8,43.5,29.79,ESE,123,5.0,6.0,40,0.00,,,0.00,Wunderground v.1.15,2013-08-14 10:40:00,
2013-08-14 04:49:00,68.8,43.5,29.79,SE,131,4.0,7.0,40,0.00,,,0.00,Wunderground v.1.15,2013-08-14 10:49:00,
2013-08-14 04:59:00,68.4,42.5,29.79,ESE,121,4.0,4.0,39,0.00,,,0.00,Wunderground v.1.15,2013-08-14 10:59:00,
2013-08-14 05:09:00,67.6,42.4,29.80,SE,125,3.0,3.0,40,0.00,,,0.00,Wunderground v.1.15,2013-08-14 11:09:00,
2013-08-14 05:19:00,67.3,42.1,29.80,SE,128,4.0,4.0,40,0.00,,,0.00,Wunderground v.1.15,2013-08-14 11:19:00,
2013-08-14 05:29:00,66.9,42.4,29.80,ESE,113,3.0,3.0,41,0.00,,,0.00,Wunderground v.1.15,2013-08-14 11:29:00,
2013-08-14 05:39:00,66.9,42.4,29.79,East,96,4.0,4.0,41,0.00,,,0.00,Wunderground v.1.15,2013-08-14 11:39:00,
2013-08-14 05:49:00,67.1,42.6,29.80,SE,141,4.0,5.0,41,0.00,,,0.00,Wunderground v.1.15,2013-08-14 11:49:00,
2013-08-14 05:59:00,67.3,42.8,29.79,SSE,153,5.0,11.0,41,0.00,,,0.00,Wunderground v.1.15,2013-08-14 11:59:00,
2013-08-14 06:09:00,67.6,43.1,29.79,ESE,114,5.0,5.0,41,0.00,,,0.00,Wunderground v.1.15,2013-08-14 12:09:00,
2013-08-14 06:19:00,67.3,42.8,29.79,East,88,4.0,4.0,41,0.00,,,0.00,Wunderground v.1.15,2013-08-14 12:19:00,
2013-08-14 06:29:00,66.5,43.3,29.79,NE,55,4.0,6.0,43,0.00,,,0.00,Wunderground v.1.15,2013-08-14 12:29:00,
2013-08-14 06:40:00,65.0,43.1,29.81,ENE,57,5.0,5.0,45,0.00,,,0.00,Wunderground v.1.15,2013-08-14 12:40:00,
2013-08-14 06:49:00,64.4,43.2,29.82,NE,49,5.0,5.0,46,0.00,,,0.00,Wunderground v.1.15,2013-08-14 12:49:00,
2013-08-14 06:59:00,62.0,43.7,29.84,NE,42,4.0,6.0,51,0.00,,,0.00,Wunderground v.1.15,2013-08-14 12:59:00,
2013-08-14 07:09:00,60.8,43.6,29.88,ENE,67,6.0,7.0,53,0.00,,,0.00,Wunderground v.1.15,2013-08-14 13:09:00,
2013-08-14 07:20:00,62.1,43.2,29.87,ENE,64,7.0,9.0,50,0.00,,,0.00,Wunderground v.1.15,2013-08-14 13:20:00,
2013-08-14 07:29:00,64.1,43.4,29.86,ENE,76,6.0,8.0,47,0.00,,,0.00,Wunderground v.1.15,2013-08-14 13:29:00,
2013-08-14 07:39:00,65.3,44.0,29.87,ENE,69,3.0,3.0,46,0.00,,,0.00,Wunderground v.1.15,2013-08-14 13:39:00,
2013-08-14 07:50:00,65.9,43.9,29.86,SE,146,1.0,3.0,45,0.00,,,0.00,Wunderground v.1.15,2013-08-14 13:50:00,
2013-08-14 07:59:00,66.0,44.0,29.86,SSE,159,2.0,2.0,45,0.00,,,0.00,Wunderground v.1.15,2013-08-14 13:59:00,
2013-08-14 08:09:00,66.5,45.1,29.89,ESE,106,2.0,2.0,46,0.00,,,0.00,Wunderground v.1.15,2013-08-14 14:09:00,
2013-08-14 08:19:00,67.2,45.1,29.89,East,84,2.0,3.0,45,0.00,,,0.00,Wunderground v.1.15,2013-08-14 14:19:00,
2013-08-14 08:30:00,67.9,46.3,29.88,ESE,106,2.0,2.0,46,0.00,,,0.00,Wunderground v.1.15,2013-08-14 14:30:00,
2013-08-14 08:39:00,69.1,45.7,29.88,ESE,106,3.0,3.0,43,0.00,,,0.00,Wunderground v.1.15,2013-08-14 14:39:00,
2013-08-14 08:49:00,70.4,45.6,29.87,East,98,3.0,3.0,41,0.00,,,0.00,Wunderground v.1.15,2013-08-14 14:49:00,
2013-08-14 09:00:00,71.6,46.0,29.86,ESE,107,4.0,4.0,40,0.00,,,0.00,Wunderground v.1.15,2013-08-14 15:00:00,
2013-08-14 09:09:00,72.8,45.0,29.88,East,97,4.0,4.0,37,0.00,,,0.00,Wunderground v.1.15,2013-08-14 15:09:00,
2013-08-14 09:19:00,74.4,46.4,29.86,SE,142,4.0,4.0,37,0.00,,,0.00,Wunderground v.1.15,2013-08-14 15:19:00,
2013-08-14 09:29:00,75.0,46.2,29.86,ESE,115,5.0,5.0,36,0.00,,,0.00,Wunderground v.1.15,2013-08-14 15:29:00,
2013-08-14 09:39:00,75.6,46.8,29.85,SSE,160,4.0,4.0,36,0.00,,,0.00,Wunderground v.1.15,2013-08-14 15:39:00,
2013-08-14 09:49:00,76.3,46.6,29.85,SSE,152,4.0,6.0,35,0.00,,,0.00,Wunderground v.1.15,2013-08-14 15:49:00,
2013-08-14 09:59:00,76.6,47.6,29.85,East,89,5.0,5.0,36,0.00,,,0.00,Wunderground v.1.15,2013-08-14 15:59:00,
2013-08-14 10:10:00,77.0,47.2,29.88,ESE,107,4.0,4.0,35,0.00,,,0.00,Wunderground v.1.15,2013-08-14 16:10:00,
2013-08-14 10:19:00,78.0,48.1,29.87,ENE,76,4.0,5.0,35,0.00,,,0.00,Wunderground v.1.15,2013-08-14 16:19:00,
2013-08-14 10:29:00,78.7,47.2,29.87,ENE,70,5.0,5.0,33,0.00,,,0.00,Wunderground v.1.15,2013-08-14 16:29:00,
2013-08-14 10:39:00,79.3,48.5,29.86,ESE,106,5.0,5.0,34,0.00,,,0.00,Wunderground v.1.15,2013-08-14 16:39:00,
2013-08-14 10:50:00,80.8,48.2,29.85,ENE,69,4.0,6.0,32,0.00,,,0.00,Wunderground v.1.15,2013-08-14 16:50:00,
2013-08-14 11:09:00,81.0,48.4,29.85,East,95,5.0,5.0,32,0.00,,,0.00,Wunderground v.1.15,2013-08-14 17:09:00,
2013-08-14 11:19:00,81.4,48.7,29.85,ENE,67,4.0,5.0,32,0.00,,,0.00,Wunderground v.1.15,2013-08-14 17:19:00,
2013-08-14 11:29:00,83.2,49.4,29.84,SE,125,3.0,3.0,31,0.00,,,0.00,Wunderground v.1.15,2013-08-14 17:29:00,
2013-08-14 11:39:00,83.9,48.2,29.84,East,89,3.0,3.0,29,0.00,,,0.00,Wunderground v.1.15,2013-08-14 17:39:00,
2013-08-14 11:49:00,85.0,49.2,29.82,East,91,4.0,6.0,29,0.00,,,0.00,Wunderground v.1.15,2013-08-14 17:49:00,
2013-08-14 11:59:00,85.9,49.0,29.82,South,184,4.0,4.0,28,0.00,,,0.00,Wunderground v.1.15,2013-08-14 17:59:00,
2013-08-14 12:10:00,85.9,50.0,29.82,East,86,4.0,5.0,29,0.00,,,0.00,Wunderground v.1.15,2013-08-14 18:10:00,
2013-08-14 12:20:00,86.9,48.9,29.81,ENE,59,3.0,3.0,27,0.00,,,0.00,Wunderground v.1.15,2013-08-14 18:20:00,
2013-08-14 12:39:00,88.4,50.2,29.80,ENE,77,4.0,4.0,27,0.00,,,0.00,Wunderground v.1.15,2013-08-14 18:39:00,
2013-08-14 12:49:00,88.5,49.2,29.79,East,87,4.0,4.0,26,0.00,,,0.00,Wunderground v.1.15,2013-08-14 18:49:00,
2013-08-14 13:20:00,89.1,48.7,29.77,WSW,251,1.0,2.0,25,0.00,,,0.00,Wunderground v.1.15,2013-08-14 19:20:00,
2013-08-14 13:30:00,90.0,49.5,29.76,NW,321,2.0,2.0,25,0.00,,,0.00,Wunderground v.1.15,2013-08-14 19:30:00,
2013-08-14 13:40:00,91.2,50.5,29.76,NNE,23,2.0,2.0,25,0.00,,,0.00,Wunderground v.1.15,2013-08-14 19:40:00,
2013-08-14 13:49:00,91.8,49.9,29.75,North,9,1.0,1.0,24,0.00,,,0.00,Wunderground v.1.15,2013-08-14 19:49:00,
2013-08-14 13:59:00,92.0,51.1,29.74,NE,44,1.0,1.0,25,0.00,,,0.00,Wunderground v.1.15,2013-08-14 19:59:00,
2013-08-14 14:09:00,91.9,51.1,29.72,NNE,21,1.0,3.0,25,0.00,,,0.00,Wunderground v.1.15,2013-08-14 20:09:00,
2013-08-14 14:30:00,93.8,52.7,29.70,WNW,300,2.0,5.0,25,0.00,,,0.00,Wunderground v.1.15,2013-08-14 20:30:00,
2013-08-14 14:39:00,93.1,51.0,29.71,NW,304,3.0,3.0,24,0.00,,,0.00,Wunderground v.1.15,2013-08-14 20:39:00,
2013-08-14 14:49:00,91.0,49.2,29.72,WNW,302,6.0,6.0,24,0.00,,,0.00,Wunderground v.1.15,2013-08-14 20:49:00,
2013-08-14 14:59:00,88.9,47.4,29.72,WNW,299,6.0,6.0,24,0.00,,,0.00,Wunderground v.1.15,2013-08-14 20:59:00,
2013-08-14 15:10:00,88.2,46.8,29.72,NNW,332,4.0,4.0,24,0.00,,,0.00,Wunderground v.1.15,2013-08-14 21:10:00,
2013-08-14 15:19:00,88.9,46.3,29.71,NW,306,5.0,6.0,23,0.00,,,0.00,Wunderground v.1.15,2013-08-14 21:19:00,
2013-08-14 15:29:00,88.8,46.2,29.71,NW,318,5.0,5.0,23,0.00,,,0.00,Wunderground v.1.15,2013-08-14 21:29:00,
2013-08-14 15:40:00,88.6,48.3,29.70,NNE,30,2.0,2.0,25,0.00,,,0.00,Wunderground v.1.15,2013-08-14 21:40:00,
2013-08-14 15:50:00,88.5,48.2,29.70,NNE,28,1.0,4.0,25,0.00,,,0.00,Wunderground v.1.15,2013-08-14 21:50:00,
2013-08-14 15:59:00,89.6,48.0,29.69,North,360,2.0,4.0,24,0.00,,,0.00,Wunderground v.1.15,2013-08-14 21:59:00,
2013-08-14 16:09:00,91.7,46.2,29.69,NNE,12,2.0,3.0,21,0.00,,,0.00,Wunderground v.1.15,2013-08-14 22:09:00,
2013-08-14 16:20:00,93.2,44.8,29.68,North,11,2.0,4.0,19,0.00,,,0.00,Wunderground v.1.15,2013-08-14 22:20:00,
2013-08-14 16:29:00,93.2,44.8,29.68,NNE,15,2.0,2.0,19,0.00,,,0.00,Wunderground v.1.15,2013-08-14 22:29:00,
2013-08-14 16:39:00,94.0,44.0,29.67,NNE,24,2.0,2.0,18,0.00,,,0.00,Wunderground v.1.15,2013-08-14 22:39:00,
2013-08-14 16:49:00,94.5,44.4,29.67,North,360,2.0,2.0,18,0.00,,,0.00,Wunderground v.1.15,2013-08-14 22:49:00,
2013-08-14 17:09:00,94.5,41.4,29.66,SW,221,2.0,2.0,16,0.00,,,0.00,Wunderground v.1.15,2013-08-14 23:09:00,
2013-08-14 17:19:00,94.7,41.5,29.66,ENE,76,3.0,6.0,16,0.00,,,0.00,Wunderground v.1.15,2013-08-14 23:19:00,
2013-08-14 17:30:00,94.4,42.9,29.66,NNE,30,2.0,2.0,17,0.00,,,0.00,Wunderground v.1.15,2013-08-14 23:30:00,
2013-08-14 17:40:00,94.8,44.7,29.66,NNE,14,3.0,3.0,18,0.00,,,0.00,Wunderground v.1.15,2013-08-14 23:40:00,
2013-08-14 17:49:00,93.3,42.0,29.66,NE,36,2.0,2.0,17,0.00,,,0.00,Wunderground v.1.15,2013-08-14 23:49:00,
2013-08-14 17:59:00,92.4,44.2,29.66,North,350,2.0,2.0,19,0.00,,,0.00,Wunderground v.1.15,2013-08-14 23:59:00,
2013-08-14 18:10:00,93.0,40.2,29.68,NE,51,3.0,5.0,16,0.00,,,0.00,Wunderground v.1.15,2013-08-15 00:10:00,
2013-08-14 18:20:00,93.3,40.4,29.68,NE,53,3.0,3.0,16,0.00,,,0.00,Wunderground v.1.15,2013-08-15 00:20:00,
2013-08-14 18:29:00,93.5,42.1,29.68,NE,53,1.0,1.0,17,0.00,,,0.00,Wunderground v.1.15,2013-08-15 00:29:00,
2013-08-14 18:39:00,93.2,40.3,29.68,NNW,342,0.0,0.0,16,0.00,,,0.00,Wunderground v.1.15,2013-08-15 00:39:00,
2013-08-14 18:50:00,93.3,42.0,29.68,NNE,14,1.0,1.0,17,0.00,,,0.00,Wunderground v.1.15,2013-08-15 00:50:00,
2013-08-14 18:59:00,93.8,42.4,29.68,NE,56,0.0,2.0,17,0.00,,,0.00,Wunderground v.1.15,2013-08-15 00:59:00,
2013-08-14 19:09:00,93.3,44.9,29.66,East,92,1.0,1.0,19,0.00,,,0.00,Wunderground v.1.15,2013-08-15 01:09:00,
2013-08-14 19:19:00,92.5,44.2,29.66,East,92,1.0,1.0,19,0.00,,,0.00,Wunderground v.1.15,2013-08-15 01:19:00,
2013-08-14 19:30:00,91.7,44.9,29.66,East,95,1.0,1.0,20,0.00,,,0.00,Wunderground v.1.15,2013-08-15 01:30:00,
2013-08-14 19:39:00,91.0,46.9,29.67,ESE,117,1.0,1.0,22,0.00,,,0.00,Wunderground v.1.15,2013-08-15 01:39:00,
2013-08-14 19:49:00,90.3,45.1,29.67,ESE,116,0.0,0.0,21,0.00,,,0.00,Wunderground v.1.15,2013-08-15 01:49:00,
2013-08-14 19:59:00,88.9,52.5,29.67,North,351,1.0,1.0,29,0.00,,,0.00,Wunderground v.1.15,2013-08-15 01:59:00,
2013-08-14 20:09:00,84.1,50.2,29.67,NE,37,0.0,0.0,31,0.00,,,0.00,Wunderground v.1.15,2013-08-15 02:09:00,
2013-08-14 20:19:00,80.6,48.8,29.69,NNE,19,0.0,0.0,33,0.00,,,0.00,Wunderground v.1.15,2013-08-15 02:19:00,
2013-08-14 20:29:00,79.3,46.0,29.70,NE,34,0.0,1.0,31,0.00,,,0.00,Wunderground v.1.15,2013-08-15 02:29:00,
2013-08-14 20:40:00,80.2,44.1,29.70,NE,36,0.0,0.0,28,0.00,,,0.00,Wunderground v.1.15,2013-08-15 02:40:00,
2013-08-14 20:49:00,80.1,43.1,29.71,East,83,1.0,4.0,27,0.00,,,0.00,Wunderground v.1.15,2013-08-15 02:49:00,
2013-08-14 20:59:00,80.1,44.0,29.71,East,82,1.0,1.0,28,0.00,,,0.00,Wunderground v.1.15,2013-08-15 02:59:00,
2013-08-14 21:09:00,79.2,45.1,29.69,East,82,0.0,0.0,30,0.00,,,0.00,Wunderground v.1.15,2013-08-15 03:09:00,
2013-08-14 21:20:00,76.9,47.2,29.71,East,82,0.0,0.0,35,0.00,,,0.00,Wunderground v.1.15,2013-08-15 03:20:00,
2013-08-14 21:29:00,75.5,45.9,29.72,East,82,0.0,0.0,35,0.00,,,0.00,Wunderground v.1.15,2013-08-15 03:29:00,
2013-08-14 21:39:00,75.2,45.7,29.72,East,82,0.0,0.0,35,0.00,,,0.00,Wunderground v.1.15,2013-08-15 03:39:00,
2013-08-14 21:50:00,74.8,46.1,29.72,East,82,0.0,0.0,36,0.00,,,0.00,Wunderground v.1.15,2013-08-15 03:50:00,
2013-08-14 21:59:00,73.2,45.4,29.73,East,82,0.0,0.0,37,0.00,,,0.00,Wunderground v.1.15,2013-08-15 03:59:00,
2013-08-14 22:09:00,71.9,45.6,29.72,East,82,0.0,0.0,39,0.00,,,0.00,Wunderground v.1.15,2013-08-15 04:09:00,
2013-08-14 22:19:00,70.6,45.7,29.73,East,82,0.0,0.0,41,0.00,,,0.00,Wunderground v.1.15,2013-08-15 04:19:00,
2013-08-14 22:30:00,69.3,45.2,29.73,East,82,0.0,0.0,42,0.00,,,0.00,Wunderground v.1.15,2013-08-15 04:30:00,
2013-08-14 22:39:00,68.4,46.8,29.75,East,82,0.0,0.0,46,0.00,,,0.00,Wunderground v.1.15,2013-08-15 04:39:00,
2013-08-14 22:49:00,67.2,46.3,29.75,East,82,0.0,0.0,47,0.00,,,0.00,Wunderground v.1.15,2013-08-15 04:49:00,
2013-08-14 23:00:00,65.6,47.0,29.76,East,82,0.0,0.0,51,0.00,,,0.00,Wunderground v.1.15,2013-08-15 05:00:00,
2013-08-14 23:09:00,64.5,46.0,29.74,East,82,0.0,0.0,51,0.00,,,0.00,Wunderground v.1.15,2013-08-15 05:09:00,
2013-08-14 23:19:00,63.3,44.3,29.75,East,82,0.0,0.0,50,0.00,,,0.00,Wunderground v.1.15,2013-08-15 05:19:00,
2013-08-14 23:29:00,63.5,46.6,29.74,East,82,0.0,0.0,54,0.00,,,0.00,Wunderground v.1.15,2013-08-15 05:29:00,
2013-08-14 23:40:00,62.3,45.4,29.75,East,82,0.0,0.0,54,0.00,,,0.00,Wunderground v.1.15,2013-08-15 05:40:00,
2013-08-14 23:49:00,61.3,46.4,29.76,East,82,0.0,0.0,58,0.00,,,0.00,Wunderground v.1.15,2013-08-15 05:49:00,
2013-08-14 23:59:00,60.7,45.8,29.76,East,82,0.0,0.0,58,0.00,,,0.00,Wunderground v.1.15,2013-08-15 05:59:00,